createdAt,value
2022-11-17T00:00:18.241Z,12.20
2022-11-17T00:02:45.865Z,12.20
2022-11-17T00:05:13.468Z,12.20
2022-11-17T00:07:40.874Z,12.20
2022-11-17T00:10:08.273Z,12.20
2022-11-17T00:12:53.500Z,12.20
2022-11-17T00:15:20.457Z,12.20
2022-11-17T00:18:08.140Z,12.20
2022-11-17T00:20:57.356Z,12.20
2022-11-17T00:23:25.305Z,12.20
2022-11-17T00:25:52.266Z,12.10
2022-11-17T00:28:19.210Z,12.10
2022-11-17T00:31:04.575Z,12.10
2022-11-17T00:33:49.805Z,12.10
2022-11-17T00:36:16.814Z,12.00
2022-11-17T00:38:43.734Z,12.00
2022-11-17T00:41:10.642Z,12.00
2022-11-17T00:43:37.707Z,12.00
2022-11-17T00:46:04.876Z,12.00
2022-11-17T00:48:31.802Z,12.00
2022-11-17T00:51:03.650Z,12.00
2022-11-17T00:53:30.705Z,12.00
2022-11-17T00:55:57.695Z,12.00
2022-11-17T00:58:24.632Z,12.00
2022-11-17T01:00:51.525Z,12.00
2022-11-17T01:03:18.424Z,12.00
2022-11-17T01:05:45.390Z,12.00
2022-11-17T01:08:12.295Z,12.00
2022-11-17T01:10:39.411Z,12.00
2022-11-17T01:13:06.393Z,12.00
2022-11-17T01:15:34.240Z,12.10
2022-11-17T01:18:01.154Z,12.00
2022-11-17T01:20:28.362Z,12.10
2022-11-17T01:22:55.485Z,12.10
2022-11-17T01:25:22.438Z,12.10
2022-11-17T01:27:49.376Z,12.10
2022-11-17T01:30:18.197Z,12.10
2022-11-17T01:32:45.208Z,12.10
2022-11-17T01:35:12.168Z,12.00
2022-11-17T01:37:51.383Z,12.10
2022-11-17T01:40:18.379Z,12.00
2022-11-17T01:42:45.382Z,12.00
2022-11-17T01:45:19.972Z,12.00
2022-11-17T01:47:54.982Z,12.00
2022-11-17T01:50:27.615Z,12.00
2022-11-17T01:52:57.548Z,11.90
2022-11-17T01:55:28.649Z,11.90
2022-11-17T01:58:00.252Z,11.90
2022-11-17T02:00:28.243Z,11.90
2022-11-17T02:02:55.847Z,11.90
2022-11-17T02:05:22.809Z,11.90
2022-11-17T02:07:53.257Z,11.90
2022-11-17T02:10:20.579Z,11.90
2022-11-17T02:12:48.803Z,12.00
2022-11-17T02:15:15.792Z,12.00
2022-11-17T02:17:43.955Z,12.00
2022-11-17T02:20:18.611Z,12.00
2022-11-17T02:23:16.742Z,12.00
2022-11-17T02:25:52.339Z,12.00
2022-11-17T02:28:25.962Z,12.00
2022-11-17T02:31:15.728Z,12.00
2022-11-17T02:34:11.533Z,12.00
2022-11-17T02:36:56.420Z,12.00
2022-11-17T02:39:31.436Z,11.90
2022-11-17T02:42:14.225Z,11.90
2022-11-17T02:44:57.521Z,11.90
2022-11-17T02:47:29.346Z,11.90
2022-11-17T02:50:15.318Z,11.90
2022-11-17T02:52:42.500Z,11.90
2022-11-17T02:55:11.074Z,11.90
2022-11-17T02:57:40.001Z,12.00
2022-11-17T03:00:14.895Z,12.00
2022-11-17T03:03:12.919Z,12.00
2022-11-17T03:05:52.156Z,12.00
2022-11-17T03:08:37.908Z,12.00
2022-11-17T03:11:07.421Z,12.00
2022-11-17T03:14:05.213Z,12.00
2022-11-17T03:16:41.160Z,12.00
2022-11-17T03:19:25.896Z,11.90
2022-11-17T03:22:07.681Z,12.00
2022-11-17T03:24:41.948Z,11.90
2022-11-17T03:27:16.873Z,11.90
2022-11-17T03:29:50.111Z,11.90
2022-11-17T03:32:18.953Z,11.80
2022-11-17T03:35:03.657Z,11.80
2022-11-17T03:37:34.356Z,11.70
2022-11-17T03:40:13.886Z,11.70
2022-11-17T03:42:44.350Z,11.60
2022-11-17T03:45:30.748Z,11.50
2022-11-17T03:48:04.636Z,11.50
2022-11-17T03:50:40.857Z,11.50
2022-11-17T03:53:07.889Z,11.50
2022-11-17T03:55:55.133Z,11.50
2022-11-17T03:58:24.491Z,11.50
2022-11-17T04:00:53.340Z,11.50
2022-11-17T04:03:23.523Z,11.40
2022-11-17T04:05:50.515Z,11.50
2022-11-17T04:08:17.524Z,11.50
2022-11-17T04:11:04.767Z,11.50
2022-11-17T04:13:50.339Z,11.60
2022-11-17T04:16:17.319Z,11.60
2022-11-17T04:18:44.415Z,11.60
2022-11-17T04:21:11.370Z,11.60
2022-11-17T04:23:38.564Z,11.60
2022-11-17T04:26:24.301Z,11.60
2022-11-17T04:28:51.477Z,11.60
2022-11-17T04:31:26.769Z,11.60
2022-11-17T04:33:56.701Z,11.60
2022-11-17T04:36:26.750Z,11.60
2022-11-17T04:38:56.072Z,11.60
2022-11-17T04:41:43.557Z,11.60
2022-11-17T04:44:12.409Z,11.60
2022-11-17T04:46:40.410Z,11.60
2022-11-17T04:49:08.289Z,11.60
2022-11-17T04:51:35.663Z,11.60
2022-11-17T04:54:04.896Z,11.60
2022-11-17T04:56:32.413Z,11.60
2022-11-17T04:58:59.429Z,11.60
2022-11-17T05:01:27.956Z,11.60
2022-11-17T05:03:59.872Z,11.60
2022-11-17T05:06:38.624Z,11.60
2022-11-17T05:09:23.861Z,11.60
2022-11-17T05:12:09.178Z,11.60
2022-11-17T05:14:36.152Z,11.60
2022-11-17T05:17:10.565Z,11.60
2022-11-17T05:19:46.681Z,11.60
2022-11-17T05:22:35.067Z,11.60
2022-11-17T05:25:02.812Z,11.60
2022-11-17T05:27:30.130Z,11.60
2022-11-17T05:29:57.068Z,11.60
2022-11-17T05:32:24.033Z,11.60
2022-11-17T05:34:51.121Z,11.60
2022-11-17T05:37:18.257Z,11.60
2022-11-17T05:39:45.159Z,11.60
2022-11-17T05:42:12.268Z,11.70
2022-11-17T05:44:40.007Z,11.60
2022-11-17T05:47:07.009Z,11.60
2022-11-17T05:49:34.005Z,11.60
2022-11-17T05:52:00.968Z,11.60
2022-11-17T05:54:27.935Z,11.60
2022-11-17T05:57:09.688Z,11.60
2022-11-17T05:59:53.540Z,11.60
2022-11-17T06:02:27.464Z,11.50
2022-11-17T06:04:54.424Z,11.50
2022-11-17T06:07:21.393Z,11.50
2022-11-17T06:09:48.349Z,11.50
2022-11-17T06:12:15.476Z,11.50
2022-11-17T06:14:42.854Z,11.50
2022-11-17T06:17:27.353Z,11.50
2022-11-17T06:20:08.460Z,11.50
2022-11-17T06:22:35.988Z,11.50
2022-11-17T06:25:05.139Z,11.50
2022-11-17T06:27:33.179Z,11.40
2022-11-17T06:30:03.645Z,11.50
2022-11-17T06:32:34.854Z,11.40
2022-11-17T06:35:05.251Z,11.40
2022-11-17T06:37:32.313Z,11.40
2022-11-17T06:39:59.252Z,11.40
2022-11-17T06:42:44.755Z,11.30
2022-11-17T06:45:12.314Z,11.30
2022-11-17T06:47:39.613Z,11.30
2022-11-17T06:50:07.577Z,11.20
2022-11-17T06:52:34.569Z,11.30
2022-11-17T06:55:01.633Z,11.30
2022-11-17T06:57:29.874Z,11.30
2022-11-17T06:59:56.921Z,11.30
2022-11-17T07:02:23.908Z,11.30
2022-11-17T07:04:50.949Z,11.30
2022-11-17T07:07:17.889Z,11.30
2022-11-17T07:09:44.944Z,11.30
2022-11-17T07:12:11.883Z,11.30
2022-11-17T07:14:38.812Z,11.30
2022-11-17T07:17:06.984Z,11.30
2022-11-17T07:19:34.152Z,11.30
2022-11-17T07:22:01.072Z,11.40
2022-11-17T07:24:27.964Z,11.30
2022-11-17T07:26:55.089Z,11.30
2022-11-17T07:29:22.091Z,11.30
2022-11-17T07:31:49.104Z,11.40
2022-11-17T07:34:16.438Z,11.40
2022-11-17T07:36:43.381Z,11.40
2022-11-17T07:39:10.420Z,11.40
2022-11-17T07:41:37.395Z,11.40
2022-11-17T07:44:04.458Z,11.40
2022-11-17T07:46:31.470Z,11.40
2022-11-17T07:48:58.432Z,11.40
2022-11-17T07:51:25.553Z,11.50
2022-11-17T07:53:52.689Z,11.50
2022-11-17T07:56:19.735Z,11.50
2022-11-17T07:58:46.727Z,11.50
2022-11-17T08:01:15.560Z,11.50
2022-11-17T08:03:43.469Z,11.50
2022-11-17T08:06:10.729Z,11.60
2022-11-17T08:08:38.824Z,11.60
2022-11-17T08:11:08.756Z,11.60
2022-11-17T08:13:36.987Z,11.60
2022-11-17T08:16:04.462Z,11.60
2022-11-17T08:18:31.870Z,11.70
2022-11-17T08:21:10.800Z,11.70
2022-11-17T08:23:38.723Z,11.70
2022-11-17T08:26:07.288Z,11.80
2022-11-17T08:28:35.086Z,11.80
2022-11-17T08:31:04.185Z,11.90
2022-11-17T08:33:31.848Z,12.00
2022-11-17T08:36:00.105Z,12.00
2022-11-17T08:38:29.281Z,12.00
2022-11-17T08:41:02.468Z,12.10
2022-11-17T08:43:29.875Z,12.10
2022-11-17T08:45:57.309Z,12.20
2022-11-17T08:48:25.391Z,12.20
2022-11-17T08:50:52.600Z,12.20
2022-11-17T08:53:21.370Z,12.30
2022-11-17T08:55:48.499Z,12.30
2022-11-17T08:58:15.787Z,12.30
2022-11-17T09:00:43.139Z,12.30
2022-11-17T09:03:11.083Z,12.30
2022-11-17T09:05:44.027Z,12.30
2022-11-17T09:08:43.515Z,12.40
2022-11-17T09:10:59.119Z,12.40
2022-11-17T09:13:26.108Z,12.40
2022-11-17T09:15:53.254Z,12.50
2022-11-17T09:18:20.268Z,12.50
2022-11-17T09:20:47.414Z,12.60
2022-11-17T09:23:14.418Z,12.60
2022-11-17T09:25:41.461Z,12.60
2022-11-17T09:28:08.345Z,12.60
2022-11-17T09:30:36.661Z,12.70
2022-11-17T09:33:03.624Z,12.70
2022-11-17T09:35:30.640Z,12.70
2022-11-17T09:38:01.651Z,12.60
2022-11-17T09:40:36.347Z,12.70
2022-11-17T09:43:24.062Z,12.70
2022-11-17T09:45:52.161Z,12.70
2022-11-17T09:48:45.965Z,12.80
2022-11-17T09:51:16.769Z,12.80
2022-11-17T09:53:49.615Z,12.80
2022-11-17T09:56:17.140Z,12.80
2022-11-17T09:58:48.910Z,12.90
2022-11-17T10:01:18.785Z,12.90
2022-11-17T10:03:48.388Z,12.90
2022-11-17T10:06:27.393Z,12.90
2022-11-17T10:09:00.649Z,13.00
2022-11-17T10:11:33.315Z,13.00
2022-11-17T10:14:10.739Z,13.10
2022-11-17T10:16:40.233Z,13.10
2022-11-17T10:19:31.331Z,13.10
2022-11-17T10:22:04.373Z,13.10
2022-11-17T10:24:55.418Z,13.20
2022-11-17T10:27:25.593Z,13.20
2022-11-17T10:29:59.906Z,13.20
2022-11-17T10:32:30.205Z,13.20
2022-11-17T10:35:18.241Z,13.20
2022-11-17T10:37:53.927Z,13.20
2022-11-17T10:40:32.089Z,13.20
2022-11-17T10:43:11.297Z,13.20
2022-11-17T10:45:49.083Z,13.20
2022-11-17T10:48:22.989Z,13.30
2022-11-17T10:51:04.988Z,13.30
2022-11-17T10:53:41.304Z,13.30
2022-11-17T10:56:19.862Z,13.40
2022-11-17T10:58:56.639Z,13.40
2022-11-17T11:01:35.000Z,13.40
2022-11-17T11:04:04.159Z,13.40
2022-11-17T11:06:33.052Z,13.40
2022-11-17T11:09:06.008Z,13.40
2022-11-17T11:11:36.278Z,13.50
2022-11-17T11:14:20.316Z,13.50
2022-11-17T11:16:49.419Z,13.50
2022-11-17T11:19:18.603Z,13.50
2022-11-17T11:22:08.431Z,13.50
2022-11-17T11:25:00.226Z,13.50
2022-11-17T11:27:35.270Z,13.40
2022-11-17T11:30:09.957Z,13.40
2022-11-17T11:32:44.940Z,13.40
2022-11-17T11:35:36.869Z,13.40
2022-11-17T11:38:37.648Z,13.40
2022-11-17T11:41:17.123Z,13.40
2022-11-17T11:44:03.035Z,13.40
2022-11-17T11:46:36.281Z,13.40
2022-11-17T11:49:16.501Z,13.50
2022-11-17T11:51:46.212Z,13.50
2022-11-17T11:54:20.405Z,13.50
2022-11-17T11:56:48.465Z,13.50
2022-11-17T11:59:48.347Z,13.60
2022-11-17T12:02:25.093Z,13.60
2022-11-17T12:05:19.727Z,13.70
2022-11-17T12:08:13.351Z,13.70
2022-11-17T12:10:53.657Z,13.80
2022-11-17T12:13:23.004Z,13.80
2022-11-17T12:15:50.347Z,13.90
2022-11-17T12:18:17.301Z,13.90
2022-11-17T12:20:57.879Z,14.00
2022-11-17T12:23:42.997Z,14.10
2022-11-17T12:26:25.565Z,14.10
2022-11-17T12:29:14.463Z,14.10
2022-11-17T12:31:43.588Z,14.10
2022-11-17T12:34:26.544Z,14.20
2022-11-17T12:37:15.055Z,14.20
2022-11-17T12:40:00.670Z,14.20
2022-11-17T12:42:29.519Z,14.20
2022-11-17T12:45:07.822Z,14.20
2022-11-17T12:47:59.552Z,14.20
2022-11-17T12:50:51.826Z,14.20
2022-11-17T12:53:40.037Z,14.10
2022-11-17T12:56:38.397Z,14.10
2022-11-17T12:59:38.201Z,14.10
2022-11-17T13:02:26.226Z,14.10
2022-11-17T13:04:57.661Z,14.00
2022-11-17T13:07:26.469Z,14.10
2022-11-17T13:09:57.090Z,14.10
2022-11-17T13:12:31.944Z,14.10
2022-11-17T13:15:04.545Z,14.10
2022-11-17T13:17:44.408Z,14.10
2022-11-17T13:20:25.322Z,14.20
2022-11-17T13:23:06.638Z,14.20
2022-11-17T13:25:34.746Z,14.10
2022-11-17T13:28:05.100Z,14.10
2022-11-17T13:30:33.207Z,14.10
2022-11-17T13:33:02.404Z,14.10
2022-11-17T13:35:32.772Z,14.10
2022-11-17T13:38:21.092Z,14.10
2022-11-17T13:40:50.325Z,14.10
2022-11-17T13:43:20.738Z,14.10
2022-11-17T13:45:51.720Z,14.10
2022-11-17T13:48:36.639Z,14.10
2022-11-17T13:51:23.121Z,14.00
2022-11-17T13:53:58.080Z,14.10
2022-11-17T13:56:29.689Z,14.10
2022-11-17T13:58:57.390Z,14.10
2022-11-17T14:01:32.811Z,14.10
2022-11-17T14:04:20.613Z,14.10
2022-11-17T14:06:55.519Z,14.10
2022-11-17T14:09:23.521Z,14.10
2022-11-17T14:11:51.445Z,14.10
2022-11-17T14:14:32.764Z,14.10
2022-11-17T14:17:28.231Z,14.10
2022-11-17T14:19:55.304Z,14.10
2022-11-17T14:22:31.429Z,14.20
2022-11-17T14:24:58.995Z,14.20
2022-11-17T14:27:38.100Z,14.20
2022-11-17T14:30:05.840Z,14.20
2022-11-17T14:32:34.710Z,14.20
2022-11-17T14:35:01.740Z,14.20
2022-11-17T14:37:32.409Z,14.20
2022-11-17T14:40:00.708Z,14.20
2022-11-17T14:42:33.000Z,14.20
2022-11-17T14:45:03.213Z,14.20
2022-11-17T14:47:30.213Z,14.20
2022-11-17T14:49:57.168Z,14.20
2022-11-17T14:52:24.174Z,14.20
2022-11-17T14:54:51.192Z,14.10
2022-11-17T14:57:18.157Z,14.10
2022-11-17T14:59:45.178Z,14.10
2022-11-17T15:02:12.323Z,14.10
2022-11-17T15:04:56.367Z,14.10
2022-11-17T15:07:24.073Z,14.20
2022-11-17T15:09:51.099Z,14.10
2022-11-17T15:12:18.246Z,14.10
2022-11-17T15:14:47.714Z,14.10
2022-11-17T15:17:14.913Z,14.10
2022-11-17T15:19:42.443Z,14.10
2022-11-17T15:22:09.521Z,14.10
2022-11-17T15:24:36.635Z,14.10
2022-11-17T15:27:03.668Z,14.10
2022-11-17T15:29:30.593Z,14.10
2022-11-17T15:31:57.522Z,14.10
2022-11-17T15:34:24.517Z,14.10
2022-11-17T15:36:51.756Z,14.10
2022-11-17T15:39:20.694Z,14.10
2022-11-17T15:41:49.597Z,14.10
2022-11-17T15:44:18.874Z,14.10
2022-11-17T15:46:47.791Z,14.10
2022-11-17T15:49:15.746Z,14.10
2022-11-17T15:51:42.971Z,14.10
2022-11-17T15:54:18.532Z,14.10
2022-11-17T15:56:47.595Z,14.10
2022-11-17T15:59:14.864Z,14.10
2022-11-17T16:01:42.159Z,14.10
2022-11-17T16:04:11.446Z,14.10
2022-11-17T16:06:41.180Z,14.10
2022-11-17T16:09:09.269Z,14.10
2022-11-17T16:11:37.067Z,14.00
2022-11-17T16:14:05.041Z,14.00
2022-11-17T16:16:34.136Z,14.00
2022-11-17T16:19:01.343Z,14.00
2022-11-17T16:21:28.479Z,14.00
2022-11-17T16:23:57.733Z,14.00
2022-11-17T16:26:26.520Z,14.00
2022-11-17T16:28:57.576Z,14.00
2022-11-17T16:31:30.022Z,14.00
2022-11-17T16:33:59.699Z,14.00
2022-11-17T16:36:36.125Z,14.00
2022-11-17T16:39:06.920Z,14.00
2022-11-17T16:41:38.943Z,13.90
2022-11-17T16:44:11.732Z,14.00
2022-11-17T16:46:42.647Z,14.00
2022-11-17T16:49:12.287Z,13.90
2022-11-17T16:51:39.684Z,14.00
2022-11-17T16:54:10.783Z,14.00
2022-11-17T16:56:37.751Z,13.90
2022-11-17T16:59:04.981Z,13.90
2022-11-17T17:01:34.670Z,13.90
2022-11-17T17:04:04.465Z,13.90
2022-11-17T17:06:31.560Z,13.90
2022-11-17T17:09:04.479Z,14.00
2022-11-17T17:11:32.904Z,13.90
2022-11-17T17:14:02.919Z,13.90
2022-11-17T17:16:31.727Z,13.90
2022-11-17T17:19:00.844Z,13.90
2022-11-17T17:21:29.019Z,13.90
2022-11-17T17:23:57.123Z,13.90
2022-11-17T17:26:26.157Z,13.90
2022-11-17T17:28:56.454Z,13.90
2022-11-17T17:31:25.495Z,13.90
2022-11-17T17:33:54.412Z,13.90
2022-11-17T17:36:23.548Z,13.90
2022-11-17T17:38:55.855Z,13.90
2022-11-17T17:41:29.155Z,13.90
2022-11-17T17:44:07.085Z,13.90
2022-11-17T17:46:36.984Z,13.90
2022-11-17T17:49:04.337Z,13.90
2022-11-17T17:51:31.354Z,13.90
2022-11-17T17:54:00.977Z,13.90
2022-11-17T17:56:28.599Z,13.90
2022-11-17T17:58:56.360Z,13.90
2022-11-17T18:01:29.027Z,13.90
2022-11-17T18:04:04.723Z,13.90
2022-11-17T18:06:38.070Z,13.90
2022-11-17T18:09:07.060Z,13.90
2022-11-17T18:11:35.684Z,13.90
2022-11-17T18:14:03.424Z,13.90
2022-11-17T18:16:33.403Z,13.80
2022-11-17T18:19:03.458Z,13.80
2022-11-17T18:21:32.191Z,13.80
2022-11-17T18:24:01.321Z,13.80
2022-11-17T18:26:31.569Z,13.90
2022-11-17T18:29:07.916Z,13.90
2022-11-17T18:31:36.396Z,13.90
2022-11-17T18:34:06.327Z,13.90
2022-11-17T18:36:34.845Z,13.90
2022-11-17T18:39:01.809Z,13.90
2022-11-17T18:41:30.857Z,13.90
2022-11-17T18:43:58.630Z,13.80
2022-11-17T18:46:28.885Z,13.90
2022-11-17T18:48:56.769Z,13.80
2022-11-17T18:51:26.559Z,13.80
2022-11-17T18:53:54.726Z,13.80
2022-11-17T18:56:23.648Z,13.90
2022-11-17T18:58:51.252Z,13.80
2022-11-17T19:01:27.877Z,13.80
2022-11-17T19:03:56.951Z,13.80
2022-11-17T19:06:25.436Z,13.80
2022-11-17T19:08:53.802Z,13.80
2022-11-17T19:11:22.277Z,13.80
2022-11-17T19:13:49.865Z,13.80
2022-11-17T19:16:18.529Z,13.90
2022-11-17T19:18:46.905Z,13.80
2022-11-17T19:21:16.395Z,13.80
2022-11-17T19:23:51.012Z,13.80
2022-11-17T19:26:29.528Z,13.80
2022-11-17T19:28:58.493Z,13.80
2022-11-17T19:31:26.600Z,13.80
2022-11-17T19:33:54.250Z,13.80
2022-11-17T19:36:23.813Z,13.80
2022-11-17T19:38:55.986Z,13.80
2022-11-17T19:41:36.958Z,13.80
2022-11-17T19:44:06.864Z,13.80
2022-11-17T19:46:36.135Z,13.80
2022-11-17T19:49:05.889Z,13.80
2022-11-17T19:51:34.735Z,13.80
2022-11-17T19:54:04.213Z,13.80
2022-11-17T19:56:31.428Z,13.80
2022-11-17T19:58:58.626Z,13.80
2022-11-17T20:01:28.104Z,13.80
2022-11-17T20:03:56.277Z,13.80
2022-11-17T20:06:29.138Z,13.80
2022-11-17T20:08:57.522Z,13.80
2022-11-17T20:11:28.573Z,13.80
2022-11-17T20:13:55.983Z,13.80
2022-11-17T20:16:25.524Z,13.80
2022-11-17T20:18:58.013Z,13.80
2022-11-17T20:21:26.421Z,13.80
2022-11-17T20:23:54.322Z,13.80
2022-11-17T20:26:26.879Z,13.80
2022-11-17T20:28:54.208Z,13.80
2022-11-17T20:31:22.628Z,13.70
2022-11-17T20:33:49.757Z,13.70
2022-11-17T20:36:19.276Z,13.80
2022-11-17T20:38:51.545Z,13.70
2022-11-17T20:41:20.888Z,13.80
2022-11-17T20:43:49.343Z,13.80
2022-11-17T20:46:16.834Z,13.80
2022-11-17T20:48:44.649Z,13.80
2022-11-17T20:51:13.860Z,13.80
2022-11-17T20:53:41.031Z,13.80
2022-11-17T20:56:10.539Z,13.80
2022-11-17T20:58:38.315Z,13.80
2022-11-17T21:01:14.588Z,13.80
2022-11-17T21:03:42.466Z,13.80
2022-11-17T21:06:09.495Z,13.80
2022-11-17T21:08:38.227Z,13.80
2022-11-17T21:11:10.944Z,13.80
2022-11-17T21:13:38.401Z,13.80
2022-11-17T21:16:11.545Z,13.80
2022-11-17T21:18:44.329Z,13.90
2022-11-17T21:21:11.652Z,13.80
2022-11-17T21:23:40.273Z,13.90
2022-11-17T21:26:09.136Z,13.90
2022-11-17T21:28:37.327Z,13.90
2022-11-17T21:31:05.577Z,13.80
2022-11-17T21:33:32.548Z,13.90
2022-11-17T21:36:18.065Z,13.80
2022-11-17T21:38:46.856Z,13.80
2022-11-17T21:41:25.651Z,13.90
2022-11-17T21:43:54.195Z,13.80
2022-11-17T21:46:23.437Z,13.90
2022-11-17T21:48:51.481Z,13.80
2022-11-17T21:51:27.905Z,13.90
2022-11-17T21:53:56.682Z,13.80
2022-11-17T21:56:27.551Z,13.80
2022-11-17T21:58:59.712Z,13.80
2022-11-17T22:01:27.301Z,13.80
2022-11-17T22:03:54.493Z,13.70
2022-11-17T22:06:23.815Z,13.70
2022-11-17T22:08:50.857Z,13.70
2022-11-17T22:11:35.097Z,13.70
2022-11-17T22:14:20.123Z,13.70
2022-11-17T22:16:49.311Z,13.70
2022-11-17T22:19:17.981Z,13.60
2022-11-17T22:21:47.008Z,13.60
2022-11-17T22:24:14.196Z,13.60
2022-11-17T22:26:43.550Z,13.60
2022-11-17T22:29:14.115Z,13.60
2022-11-17T22:31:41.609Z,13.70
2022-11-17T22:34:08.660Z,13.70
2022-11-17T22:36:35.789Z,13.70
2022-11-17T22:39:03.533Z,13.70
2022-11-17T22:41:30.415Z,13.70
2022-11-17T22:43:58.201Z,13.70
2022-11-17T22:46:28.077Z,13.70
2022-11-17T22:48:55.112Z,13.70
2022-11-17T22:51:40.548Z,13.70
2022-11-17T22:54:08.683Z,13.70
2022-11-17T22:56:36.094Z,13.70
2022-11-17T22:59:03.228Z,13.70
2022-11-17T23:01:30.182Z,13.70
2022-11-17T23:03:57.136Z,13.70
2022-11-17T23:06:24.456Z,13.70
2022-11-17T23:08:51.400Z,13.70
2022-11-17T23:14:08.139Z,13.70
2022-11-17T23:16:36.696Z,13.80
2022-11-17T23:19:04.326Z,13.80
2022-11-17T23:21:31.307Z,13.80
2022-11-17T23:23:58.212Z,13.80
2022-11-17T23:26:25.234Z,13.80
2022-11-17T23:28:52.234Z,13.80
2022-11-17T23:31:19.216Z,13.80
2022-11-17T23:33:48.280Z,13.80
2022-11-17T23:36:18.467Z,13.80
2022-11-17T23:38:46.009Z,13.80
2022-11-17T23:41:14.521Z,13.80
2022-11-17T23:43:41.829Z,13.80
2022-11-17T23:46:14.110Z,13.80
2022-11-17T23:48:41.485Z,13.70
2022-11-17T23:51:10.876Z,13.70
2022-11-17T23:53:38.260Z,13.70
2022-11-17T23:56:05.863Z,13.70
2022-11-17T23:58:33.426Z,13.80
